createdAt,value
2019-01-24T00:00:15.442Z,98837.36
2019-01-24T00:02:43.986Z,98841.55
2019-01-24T00:05:10.958Z,98839.78
2019-01-24T00:07:37.907Z,98843.13
2019-01-24T00:10:05.217Z,98844.92
2019-01-24T00:12:35.129Z,98846.84
2019-01-24T00:15:02.433Z,98846.16
2019-01-24T00:17:29.716Z,98849.55
2019-01-24T00:19:57.054Z,98855.03
2019-01-24T00:22:25.433Z,98855.90
2019-01-24T00:24:52.383Z,98851.98
2019-01-24T00:27:19.273Z,98850.17
2019-01-24T00:29:46.197Z,98858.52
2019-01-24T00:32:13.406Z,98853.42
2019-01-24T00:34:40.294Z,98852.95
2019-01-24T00:37:10.553Z,98855.81
2019-01-24T00:39:37.503Z,98850.76
2019-01-24T00:42:04.468Z,98853.99
2019-01-24T00:44:31.715Z,98851.85
2019-01-24T00:46:58.970Z,98856.13
2019-01-24T00:49:26.267Z,98853.38
2019-01-24T00:51:53.200Z,98858.13
2019-01-24T00:54:20.430Z,98857.55
2019-01-24T00:56:47.697Z,98854.70
2019-01-24T00:59:15.147Z,98862.10
2019-01-24T01:01:42.403Z,98864.56
2019-01-24T01:04:09.669Z,98860.97
2019-01-24T01:06:37.117Z,98864.53
2019-01-24T01:09:04.101Z,98873.78
2019-01-24T01:11:32.956Z,98884.55
2019-01-24T01:13:59.821Z,98881.66
2019-01-24T01:16:26.756Z,98890.69
2019-01-24T01:18:53.715Z,98886.53
2019-01-24T01:21:21.152Z,98886.86
2019-01-24T01:23:48.370Z,98885.30
2019-01-24T01:26:15.643Z,98893.02
2019-01-24T01:28:42.598Z,98889.25
2019-01-24T01:31:09.951Z,98893.59
2019-01-24T01:33:36.835Z,98894.73
2019-01-24T01:36:03.780Z,98888.23
2019-01-24T01:38:31.629Z,98889.42
2019-01-24T01:40:58.652Z,98890.97
2019-01-24T01:43:25.601Z,98884.38
2019-01-24T01:45:53.434Z,98886.86
2019-01-24T01:48:20.358Z,98893.54
2019-01-24T01:50:47.217Z,98891.71
2019-01-24T01:53:14.400Z,98893.69
2019-01-24T01:55:41.337Z,98896.55
2019-01-24T01:58:08.300Z,98893.74
2019-01-24T02:00:35.762Z,98894.66
2019-01-24T02:03:02.706Z,98892.83
2019-01-24T02:05:29.667Z,98890.87
2019-01-24T02:07:57.106Z,98890.81
2019-01-24T02:10:24.565Z,98887.54
2019-01-24T02:12:51.817Z,98893.08
2019-01-24T02:15:18.778Z,98884.92
2019-01-24T02:17:45.741Z,98888.47
2019-01-24T02:20:12.945Z,98886.06
2019-01-24T02:22:39.854Z,98894.57
2019-01-24T02:25:06.821Z,98894.34
2019-01-24T02:27:33.780Z,98904.59
2019-01-24T02:30:01.040Z,98904.88
2019-01-24T02:32:28.006Z,98903.98
2019-01-24T02:34:54.947Z,98905.08
2019-01-24T02:37:21.856Z,98904.48
2019-01-24T02:39:49.144Z,98908.84
2019-01-24T02:42:16.498Z,98906.98
2019-01-24T02:44:43.510Z,98905.35
2019-01-24T02:47:10.796Z,98908.91
2019-01-24T02:49:37.752Z,98904.63
2019-01-24T02:52:05.934Z,98907.56
2019-01-24T02:54:32.882Z,98907.14
2019-01-24T02:57:00.220Z,98909.92
2019-01-24T02:59:27.086Z,98916.52
2019-01-24T03:01:54.312Z,98913.80
2019-01-24T03:04:21.269Z,98915.55
2019-01-24T03:06:48.213Z,98911.89
2019-01-24T03:09:15.531Z,98914.52
2019-01-24T03:11:42.712Z,98912.39
2019-01-24T03:14:11.994Z,98919.41
2019-01-24T03:16:39.024Z,98915.61
2019-01-24T03:19:05.965Z,98918.82
2019-01-24T03:21:32.892Z,98921.23
2019-01-24T03:24:00.102Z,98929.09
2019-01-24T03:26:27.352Z,98938.30
2019-01-24T03:28:54.659Z,98940.78
2019-01-24T03:31:21.638Z,98943.28
2019-01-24T03:33:49.027Z,98947.48
2019-01-24T03:36:15.962Z,98945.49
2019-01-24T03:38:42.826Z,98943.97
2019-01-24T03:41:10.165Z,98943.72
2019-01-24T03:43:38.219Z,98952.45
2019-01-24T03:46:05.154Z,98958.06
2019-01-24T03:48:32.334Z,98955.02
2019-01-24T03:50:59.197Z,98949.02
2019-01-24T03:53:26.119Z,98953.98
2019-01-24T03:55:53.457Z,98950.78
2019-01-24T03:58:20.500Z,98953.12
2019-01-24T04:00:47.495Z,98951.87
2019-01-24T04:03:14.797Z,98949.07
2019-01-24T04:05:41.747Z,98953.62
2019-01-24T04:08:08.653Z,98957.36
2019-01-24T04:10:35.600Z,98963.72
2019-01-24T04:13:02.767Z,98968.98
2019-01-24T04:15:29.760Z,98962.22
2019-01-24T04:17:56.672Z,98968.33
2019-01-24T04:20:23.565Z,98973.03
2019-01-24T04:22:50.806Z,98971.69
2019-01-24T04:25:17.673Z,98975.58
2019-01-24T04:27:44.542Z,98980.25
2019-01-24T04:30:11.675Z,98985.83
2019-01-24T04:32:38.807Z,98984.68
2019-01-24T04:35:07.716Z,98989.11
2019-01-24T04:37:34.631Z,98987.50
2019-01-24T04:40:01.607Z,98984.38
2019-01-24T04:42:28.838Z,98986.89
2019-01-24T04:44:55.795Z,98994.59
2019-01-24T04:47:23.124Z,98991.17
2019-01-24T04:49:50.111Z,98990.84
2019-01-24T04:52:17.419Z,98993.33
2019-01-24T04:54:44.827Z,98993.69
2019-01-24T04:57:11.830Z,98994.11
2019-01-24T04:59:39.285Z,98994.24
2019-01-24T05:02:06.268Z,98991.95
2019-01-24T05:04:33.148Z,98999.30
2019-01-24T05:07:01.183Z,98998.33
2019-01-24T05:09:28.194Z,99003.83
2019-01-24T05:11:55.142Z,99003.13
2019-01-24T05:14:22.108Z,99006.92
2019-01-24T05:16:48.987Z,99011.45
2019-01-24T05:19:17.291Z,99003.50
2019-01-24T05:21:44.231Z,99003.06
2019-01-24T05:24:11.506Z,99004.35
2019-01-24T05:26:38.941Z,99007.83
2019-01-24T05:29:06.229Z,99010.71
2019-01-24T05:31:33.555Z,99008.88
2019-01-24T05:34:00.898Z,99009.34
2019-01-24T05:36:27.788Z,99010.03
2019-01-24T05:38:54.792Z,99017.24
2019-01-24T05:41:21.796Z,99014.59
2019-01-24T05:43:49.735Z,99015.78
2019-01-24T05:46:16.597Z,99020.98
2019-01-24T05:48:43.470Z,99028.89
2019-01-24T05:51:10.417Z,99031.46
2019-01-24T05:53:37.317Z,99033.79
2019-01-24T05:56:04.325Z,99036.01
2019-01-24T05:58:31.578Z,99034.72
2019-01-24T06:01:00.063Z,99042.69
2019-01-24T06:03:27.347Z,99041.23
2019-01-24T06:05:54.473Z,99047.47
2019-01-24T06:08:21.725Z,99052.69
2019-01-24T06:10:48.620Z,99053.98
2019-01-24T06:13:15.821Z,99058.75
2019-01-24T06:15:42.720Z,99056.71
2019-01-24T06:18:10.052Z,99056.56
2019-01-24T06:20:37.412Z,99062.61
2019-01-24T06:23:04.322Z,99065.94
2019-01-24T06:25:31.566Z,99068.71
2019-01-24T06:27:58.831Z,99066.62
2019-01-24T06:30:26.088Z,99069.61
2019-01-24T06:32:53.355Z,99063.72
2019-01-24T06:35:20.699Z,99071.89
2019-01-24T06:37:47.639Z,99076.09
2019-01-24T06:40:14.918Z,99076.16
2019-01-24T06:42:41.860Z,99077.34
2019-01-24T06:45:08.832Z,99076.23
2019-01-24T06:47:36.055Z,99080.05
2019-01-24T06:50:03.420Z,99088.89
2019-01-24T06:52:30.774Z,99092.73
2019-01-24T06:54:57.739Z,99093.64
2019-01-24T06:57:25.377Z,99092.23
2019-01-24T06:59:52.377Z,99088.58
2019-01-24T07:02:19.330Z,99097.37
2019-01-24T07:04:46.725Z,99101.02
2019-01-24T07:07:13.659Z,99101.16
2019-01-24T07:09:41.125Z,99097.67
2019-01-24T07:12:08.172Z,99103.51
2019-01-24T07:14:36.057Z,99106.45
2019-01-24T07:17:03.005Z,99101.14
2019-01-24T07:19:30.233Z,99114.61
2019-01-24T07:21:57.700Z,99118.11
2019-01-24T07:24:24.663Z,99117.92
2019-01-24T07:26:52.000Z,99115.63
2019-01-24T07:29:19.085Z,99116.62
2019-01-24T07:31:46.086Z,99119.67
2019-01-24T07:34:13.028Z,99111.16
2019-01-24T07:36:40.293Z,99121.42
2019-01-24T07:39:07.256Z,99129.58
2019-01-24T07:41:34.160Z,99137.97
2019-01-24T07:44:01.309Z,99137.02
2019-01-24T07:46:29.617Z,99137.80
2019-01-24T07:48:56.954Z,99140.08
2019-01-24T07:51:24.315Z,99141.36
2019-01-24T07:53:52.517Z,99139.38
2019-01-24T07:56:19.499Z,99145.77
2019-01-24T07:58:46.910Z,99145.13
2019-01-24T08:01:13.869Z,99145.60
2019-01-24T08:03:41.201Z,99149.72
2019-01-24T08:06:09.249Z,99153.98
2019-01-24T08:08:36.878Z,99156.56
2019-01-24T08:11:04.189Z,99161.79
2019-01-24T08:13:31.449Z,99159.27
2019-01-24T08:15:58.411Z,99154.77
2019-01-24T08:18:25.626Z,99158.50
2019-01-24T08:20:54.254Z,99165.97
2019-01-24T08:23:23.104Z,99160.03
2019-01-24T08:25:51.881Z,99160.34
2019-01-24T08:28:18.760Z,99164.20
2019-01-24T08:30:45.794Z,99163.39
2019-01-24T08:33:12.687Z,99165.10
2019-01-24T08:35:39.568Z,99171.83
2019-01-24T08:38:06.532Z,99166.68
2019-01-24T08:40:33.473Z,99176.02
2019-01-24T08:43:00.663Z,99175.61
2019-01-24T08:45:27.522Z,99174.23
2019-01-24T08:47:54.419Z,99170.98
2019-01-24T08:50:21.788Z,99172.42
2019-01-24T08:52:49.006Z,99173.29
2019-01-24T08:55:16.247Z,99170.84
2019-01-24T08:57:43.222Z,99179.25
2019-01-24T09:00:10.102Z,99178.21
2019-01-24T09:02:38.073Z,99177.06
2019-01-24T09:05:05.038Z,99182.14
2019-01-24T09:07:32.420Z,99186.55
2019-01-24T09:09:59.291Z,99182.44
2019-01-24T09:12:30.304Z,99183.73
2019-01-24T09:14:54.832Z,99174.70
2019-01-24T09:17:22.174Z,99186.34
2019-01-24T09:19:49.122Z,99192.67
2019-01-24T09:22:16.329Z,99190.94
2019-01-24T09:24:43.196Z,99200.88
2019-01-24T09:27:10.162Z,99201.48
2019-01-24T09:29:37.044Z,99204.46
2019-01-24T09:32:04.348Z,99204.78
2019-01-24T09:34:31.305Z,99197.89
2019-01-24T09:36:59.001Z,99210.88
2019-01-24T09:39:25.953Z,99209.63
2019-01-24T09:41:52.903Z,99211.06
2019-01-24T09:44:19.794Z,99207.80
2019-01-24T09:46:46.773Z,99212.61
2019-01-24T09:49:13.723Z,99222.82
2019-01-24T09:51:40.922Z,99227.00
2019-01-24T09:54:07.872Z,99224.20
2019-01-24T09:56:34.839Z,99216.29
2019-01-24T09:59:02.163Z,99215.22
2019-01-24T10:01:29.026Z,99221.20
2019-01-24T10:03:56.249Z,99227.53
2019-01-24T10:06:23.433Z,99222.34
2019-01-24T10:08:50.771Z,99221.00
2019-01-24T10:11:23.463Z,99218.30
2019-01-24T10:13:46.274Z,99225.49
2019-01-24T10:16:13.152Z,99218.02
2019-01-24T10:18:40.393Z,99224.78
2019-01-24T10:21:08.090Z,99227.61
2019-01-24T10:23:36.118Z,99221.27
2019-01-24T10:26:03.082Z,99220.70
2019-01-24T10:28:30.064Z,99217.73
2019-01-24T10:30:56.952Z,99219.95
2019-01-24T10:33:23.980Z,99219.23
2019-01-24T10:35:51.336Z,99215.14
2019-01-24T10:38:18.317Z,99216.22
2019-01-24T10:40:45.215Z,99216.41
2019-01-24T10:43:12.097Z,99218.89
2019-01-24T10:45:38.984Z,99219.33
2019-01-24T10:48:06.166Z,99227.19
2019-01-24T10:50:33.123Z,99228.19
2019-01-24T10:53:00.354Z,99227.53
2019-01-24T10:55:27.289Z,99223.66
2019-01-24T10:57:54.173Z,99227.89
2019-01-24T11:00:21.148Z,99228.16
2019-01-24T11:02:48.102Z,99235.23
2019-01-24T11:05:15.058Z,99230.25
2019-01-24T11:07:41.986Z,99225.51
2019-01-24T11:10:10.217Z,99230.05
2019-01-24T11:12:37.340Z,99230.33
2019-01-24T11:15:04.321Z,99231.56
2019-01-24T11:17:31.253Z,99228.08
2019-01-24T11:19:58.459Z,99226.13
2019-01-24T11:22:25.432Z,99216.91
2019-01-24T11:24:52.641Z,99224.33
2019-01-24T11:27:19.865Z,99221.25
2019-01-24T11:29:47.344Z,99205.87
2019-01-24T11:32:14.334Z,99211.38
2019-01-24T11:34:41.454Z,99208.50
2019-01-24T11:37:08.646Z,99214.01
2019-01-24T11:39:35.599Z,99218.22
2019-01-24T11:42:02.577Z,99215.03
2019-01-24T11:44:29.826Z,99215.78
2019-01-24T11:46:56.751Z,99212.91
2019-01-24T11:49:24.035Z,99208.59
2019-01-24T11:51:50.981Z,99203.88
2019-01-24T11:54:18.006Z,99200.66
2019-01-24T11:56:44.962Z,99206.50
2019-01-24T11:59:12.100Z,99204.86
2019-01-24T12:01:39.092Z,99200.01
2019-01-24T12:04:06.141Z,99201.73
2019-01-24T12:06:33.095Z,99195.85
2019-01-24T12:09:02.944Z,99208.60
2019-01-24T12:11:30.824Z,99203.51
2019-01-24T12:13:57.706Z,99202.14
2019-01-24T12:16:26.085Z,99200.94
2019-01-24T12:18:53.040Z,99204.95
2019-01-24T12:21:19.933Z,99203.17
2019-01-24T12:23:46.862Z,99202.38
2019-01-24T12:26:13.794Z,99201.91
2019-01-24T12:28:40.725Z,99201.02
2019-01-24T12:31:07.617Z,99203.98
2019-01-24T12:33:34.937Z,99207.00
2019-01-24T12:36:02.251Z,99211.77
2019-01-24T12:38:29.189Z,99210.48
2019-01-24T12:40:56.084Z,99213.63
2019-01-24T12:43:23.640Z,99209.23
2019-01-24T12:45:51.069Z,99215.66
2019-01-24T12:48:19.634Z,99221.13
2019-01-24T12:50:46.596Z,99212.73
2019-01-24T12:53:13.864Z,99209.85
2019-01-24T12:55:40.844Z,99214.69
2019-01-24T12:58:08.070Z,99206.33
2019-01-24T13:00:35.094Z,99215.14
2019-01-24T13:03:02.135Z,99220.59
2019-01-24T13:05:29.099Z,99213.02
2019-01-24T13:07:55.963Z,99210.91
2019-01-24T13:10:23.164Z,99211.62
2019-01-24T13:12:50.347Z,99213.83
2019-01-24T13:15:17.273Z,99213.31
2019-01-24T13:17:44.553Z,99216.63
2019-01-24T13:20:11.511Z,99212.19
2019-01-24T13:22:38.843Z,99214.77
2019-01-24T13:25:05.742Z,99220.00
2019-01-24T13:27:32.710Z,99226.55
2019-01-24T13:29:59.943Z,99225.63
2019-01-24T13:32:26.904Z,99224.88
2019-01-24T13:34:53.780Z,99229.36
2019-01-24T13:37:25.968Z,99231.81
2019-01-24T13:39:53.375Z,99235.88
2019-01-24T13:42:20.292Z,99231.42
2019-01-24T13:44:47.776Z,99236.55
2019-01-24T13:47:14.814Z,99239.97
2019-01-24T13:49:41.747Z,99239.69
2019-01-24T13:52:08.917Z,99229.58
2019-01-24T13:54:36.191Z,99231.17
2019-01-24T13:57:03.565Z,99234.63
2019-01-24T13:59:30.921Z,99230.89
2019-01-24T14:01:58.275Z,99237.48
2019-01-24T14:04:25.226Z,99226.05
2019-01-24T14:06:52.264Z,99232.81
2019-01-24T14:09:19.440Z,99230.47
2019-01-24T14:11:46.535Z,99229.36
2019-01-24T14:14:13.843Z,99223.08
2019-01-24T14:16:41.662Z,99228.19
2019-01-24T14:19:08.642Z,99226.03
2019-01-24T14:21:35.549Z,99228.08
2019-01-24T14:24:02.731Z,99228.16
2019-01-24T14:26:30.085Z,99239.46
2019-01-24T14:28:56.990Z,99237.41
2019-01-24T14:31:24.266Z,99236.00
2019-01-24T14:33:51.500Z,99237.62
2019-01-24T14:36:25.124Z,99232.13
2019-01-24T14:38:47.710Z,99237.62
2019-01-24T14:41:15.060Z,99240.05
2019-01-24T14:43:42.011Z,99248.53
2019-01-24T14:46:08.887Z,99245.63
2019-01-24T14:48:35.811Z,99242.75
2019-01-24T14:51:03.139Z,99248.46
2019-01-24T14:53:30.365Z,99249.16
2019-01-24T14:55:57.378Z,99247.49
2019-01-24T14:58:24.704Z,99255.67
2019-01-24T15:00:51.737Z,99251.23
2019-01-24T15:03:19.779Z,99254.64
2019-01-24T15:05:47.154Z,99254.36
2019-01-24T15:08:14.900Z,99261.30
2019-01-24T15:10:42.358Z,99253.42
2019-01-24T15:13:09.715Z,99261.22
2019-01-24T15:15:36.997Z,99263.36
2019-01-24T15:18:03.956Z,99258.94
2019-01-24T15:20:30.871Z,99263.98
2019-01-24T15:22:57.927Z,99271.58
2019-01-24T15:25:27.897Z,99271.20
2019-01-24T15:27:54.854Z,99275.88
2019-01-24T15:30:22.063Z,99275.59
2019-01-24T15:32:52.472Z,99279.33
2019-01-24T15:35:19.722Z,99275.63
2019-01-24T15:37:46.751Z,99270.92
2019-01-24T15:40:14.645Z,99274.73
2019-01-24T15:42:41.679Z,99279.72
2019-01-24T15:45:10.915Z,99282.69
2019-01-24T15:47:38.450Z,99281.91
2019-01-24T15:50:05.706Z,99297.11
2019-01-24T15:52:34.103Z,99299.20
2019-01-24T15:55:01.218Z,99295.91
2019-01-24T15:57:28.487Z,99303.87
2019-01-24T15:59:55.698Z,99310.40
2019-01-24T16:02:23.544Z,99316.42
2019-01-24T16:04:50.761Z,99317.46
2019-01-24T16:07:18.715Z,99320.94
2019-01-24T16:09:51.117Z,99321.30
2019-01-24T16:12:17.433Z,99326.28
2019-01-24T16:14:44.709Z,99322.92
2019-01-24T16:17:14.692Z,99321.45
2019-01-24T16:19:41.670Z,99330.61
2019-01-24T16:22:08.633Z,99326.43
2019-01-24T16:24:35.600Z,99325.83
2019-01-24T16:27:02.779Z,99329.12
2019-01-24T16:29:31.683Z,99328.50
2019-01-24T16:32:01.576Z,99327.88
2019-01-24T16:34:29.564Z,99339.44
2019-01-24T16:36:56.485Z,99339.81
2019-01-24T16:39:23.904Z,99348.40
2019-01-24T16:41:51.088Z,99354.14
2019-01-24T16:44:18.360Z,99353.50
2019-01-24T16:46:45.385Z,99354.44
2019-01-24T16:49:12.566Z,99354.15
2019-01-24T16:51:42.663Z,99356.67
2019-01-24T16:54:10.059Z,99358.72
2019-01-24T16:56:44.867Z,99360.34
2019-01-24T16:59:30.200Z,99356.88
2019-01-24T17:04:25.592Z,99360.05
2019-01-24T17:06:52.637Z,99363.12
2019-01-24T17:09:19.672Z,99361.53
2019-01-24T17:11:46.698Z,99362.91
2019-01-24T17:14:13.627Z,99367.22
2019-01-24T17:16:41.971Z,99363.45
2019-01-24T17:19:09.413Z,99365.26
2019-01-24T17:21:47.112Z,99366.16
2019-01-24T17:24:16.732Z,99372.84
2019-01-24T17:26:45.698Z,99365.48
2019-01-24T17:29:12.706Z,99365.44
2019-01-24T17:31:40.060Z,99366.30
2019-01-24T17:34:07.085Z,99364.70
2019-01-24T17:36:34.434Z,99367.36
2019-01-24T17:39:01.460Z,99365.22
2019-01-24T17:41:30.184Z,99368.17
2019-01-24T17:43:57.262Z,99366.03
2019-01-24T17:46:25.393Z,99370.63
2019-01-24T17:48:53.735Z,99373.07
2019-01-24T17:51:21.367Z,99379.55
2019-01-24T17:53:48.944Z,99379.77
2019-01-24T17:56:19.244Z,99390.84
2019-01-24T17:58:46.696Z,99389.27
2019-01-24T18:01:13.626Z,99383.03
2019-01-24T18:03:48.304Z,99390.67
2019-01-24T18:06:18.438Z,99394.84
2019-01-24T18:08:47.121Z,99399.96
2019-01-24T18:11:14.267Z,99398.35
2019-01-24T18:13:41.350Z,99399.87
2019-01-24T18:16:08.360Z,99400.80
2019-01-24T18:18:35.888Z,99405.23
2019-01-24T18:21:03.337Z,99405.61
2019-01-24T18:23:30.294Z,99405.65
2019-01-24T18:25:57.281Z,99406.66
2019-01-24T18:28:24.605Z,99411.94
2019-01-24T18:30:51.525Z,99409.78
2019-01-24T18:33:21.251Z,99412.23
2019-01-24T18:35:47.626Z,99423.52
2019-01-24T18:38:14.978Z,99420.08
2019-01-24T18:40:42.685Z,99415.80
2019-01-24T18:43:09.824Z,99417.60
2019-01-24T18:45:38.550Z,99424.77
2019-01-24T18:48:08.136Z,99424.27
2019-01-24T18:50:35.641Z,99420.17
2019-01-24T18:53:03.167Z,99428.42
2019-01-24T18:55:32.440Z,99431.73
2019-01-24T18:58:00.661Z,99430.05
2019-01-24T19:00:29.050Z,99431.46
2019-01-24T19:02:58.504Z,99435.95
2019-01-24T19:05:25.542Z,99433.45
2019-01-24T19:07:53.635Z,99427.02
2019-01-24T19:10:20.980Z,99429.83
2019-01-24T19:12:49.987Z,99435.66
2019-01-24T19:15:17.583Z,99436.53
2019-01-24T19:17:44.635Z,99431.20
2019-01-24T19:20:13.024Z,99430.56
2019-01-24T19:22:52.308Z,99430.50
2019-01-24T19:25:14.762Z,99434.16
2019-01-24T19:27:41.838Z,99439.25
2019-01-24T19:30:09.100Z,99438.33
2019-01-24T19:32:36.428Z,99439.32
2019-01-24T19:35:03.394Z,99437.56
2019-01-24T19:37:30.876Z,99433.68
2019-01-24T19:39:59.382Z,99438.81
2019-01-24T19:42:26.421Z,99437.75
2019-01-24T19:44:56.418Z,99444.26
2019-01-24T19:47:24.444Z,99448.93
2019-01-24T19:49:51.389Z,99450.41
2019-01-24T19:52:24.284Z,99459.11
2019-01-24T19:54:48.774Z,99459.68
2019-01-24T19:57:21.708Z,99455.73
2019-01-24T19:59:49.058Z,99460.06
2019-01-24T20:02:19.290Z,99459.84
2019-01-24T20:04:46.298Z,99468.91
2019-01-24T20:07:13.255Z,99465.55
2019-01-24T20:09:40.267Z,99472.98
2019-01-24T20:12:10.773Z,99476.75
2019-01-24T20:14:40.607Z,99476.55
2019-01-24T20:17:07.879Z,99477.16
2019-01-24T20:19:34.810Z,99478.52
2019-01-24T20:22:02.257Z,99483.31
2019-01-24T20:24:31.738Z,99484.38
2019-01-24T20:27:00.420Z,99486.45
2019-01-24T20:29:27.527Z,99482.32
2019-01-24T20:31:54.541Z,99490.86
2019-01-24T20:34:25.177Z,99485.88
2019-01-24T20:36:54.241Z,99486.45
2019-01-24T20:39:21.079Z,99477.41
2019-01-24T20:41:48.486Z,99481.66
2019-01-24T20:44:15.739Z,99483.11
2019-01-24T20:46:43.110Z,99479.52
2019-01-24T20:49:10.877Z,99477.18
2019-01-24T20:51:38.166Z,99482.11
2019-01-24T20:54:05.147Z,99480.25
2019-01-24T20:56:32.271Z,99481.87
2019-01-24T20:58:59.232Z,99483.84
2019-01-24T21:01:27.851Z,99488.16
2019-01-24T21:03:58.293Z,99492.48
2019-01-24T21:06:25.239Z,99494.02
2019-01-24T21:08:59.709Z,99494.38
2019-01-24T21:11:34.169Z,99498.93
2019-01-24T21:14:01.815Z,99500.23
2019-01-24T21:16:28.761Z,99499.55
2019-01-24T21:18:55.799Z,99497.96
2019-01-24T21:21:24.525Z,99497.75
2019-01-24T21:23:51.508Z,99500.77
2019-01-24T21:26:18.777Z,99504.51
2019-01-24T21:28:46.342Z,99509.15
2019-01-24T21:31:14.931Z,99514.41
2019-01-24T21:33:41.968Z,99511.91
2019-01-24T21:36:09.056Z,99513.56
2019-01-24T21:38:36.058Z,99510.64
2019-01-24T21:41:03.321Z,99507.63
2019-01-24T21:43:30.363Z,99507.25
2019-01-24T21:45:57.705Z,99500.70
2019-01-24T21:48:24.713Z,99506.88
2019-01-24T21:50:52.163Z,99509.70
2019-01-24T21:53:20.786Z,99512.60
2019-01-24T21:55:48.030Z,99518.91
2019-01-24T21:58:15.016Z,99507.41
2019-01-24T22:00:42.223Z,99516.89
2019-01-24T22:03:09.449Z,99514.58
2019-01-24T22:05:36.376Z,99513.84
2019-01-24T22:08:03.611Z,99508.07
2019-01-24T22:10:37.640Z,99516.43
2019-01-24T22:13:04.581Z,99511.80
2019-01-24T22:15:31.677Z,99515.39
2019-01-24T22:18:01.707Z,99514.25
2019-01-24T22:20:27.707Z,99516.34
2019-01-24T22:22:54.754Z,99518.03
2019-01-24T22:25:23.971Z,99522.87
2019-01-24T22:27:52.639Z,99523.11
2019-01-24T22:30:19.986Z,99520.81
2019-01-24T22:32:47.209Z,99518.42
2019-01-24T22:35:14.163Z,99520.77
2019-01-24T22:37:41.146Z,99520.91
2019-01-24T22:40:08.469Z,99521.53
2019-01-24T22:42:35.458Z,99522.50
2019-01-24T22:45:02.447Z,99522.16
2019-01-24T22:47:29.726Z,99519.19
2019-01-24T22:49:56.927Z,99515.94
2019-01-24T22:52:24.226Z,99518.33
2019-01-24T22:54:51.206Z,99521.30
2019-01-24T22:57:18.057Z,99513.71
2019-01-24T22:59:45.577Z,99515.98
2019-01-24T23:02:12.841Z,99515.36
2019-01-24T23:04:40.187Z,99515.03
2019-01-24T23:07:07.452Z,99531.11
2019-01-24T23:09:34.437Z,99522.16
2019-01-24T23:12:01.506Z,99520.37
2019-01-24T23:14:28.871Z,99520.57
2019-01-24T23:16:55.798Z,99514.69
2019-01-24T23:19:22.759Z,99509.41
2019-01-24T23:21:49.904Z,99504.63
2019-01-24T23:24:16.887Z,99508.03
2019-01-24T23:26:43.866Z,99511.91
2019-01-24T23:29:11.904Z,99513.00
2019-01-24T23:31:39.045Z,99509.50
2019-01-24T23:34:06.302Z,99499.59
2019-01-24T23:36:33.461Z,99502.58
2019-01-24T23:39:00.712Z,99504.58
2019-01-24T23:41:29.296Z,99507.55
2019-01-24T23:43:56.219Z,99509.89
2019-01-24T23:46:23.194Z,99507.22
2019-01-24T23:48:50.128Z,99504.53
2019-01-24T23:51:17.014Z,99507.93
2019-01-24T23:53:43.882Z,99501.89
2019-01-24T23:56:12.124Z,99510.94
2019-01-24T23:58:39.134Z,99507.88
